Terminal Aerodrome Forecast
Issued by NWS

Home | Current Version | Previous Version | Text Only | Print | Product List | Glossary Off
Versions: 1 2 3 4 5 6 7 8 9 10 11 12 13 14 15 16 17 18 19 20 21 22

000
FTUS43 KFGF 150048 RRA
TAFBJI
TAF
KBJI 150048Z 1501/1524 00000KT P6SM FEW200
     FM151000 00000KT 4SM BR FEW200
     FM151200 00000KT 2SM BR SCT110
     FM151300 00000KT 4SM BR FEW150
     FM151400 00000KT 5SM BR FEW200
     FM151700 14006KT P6SM SCT200
     FM151800 14007KT P6SM BKN150=

USA.gov is the U.S. government's official web portal to all federal, state and local government web resources and services.